Prudentia — PB4900 — position and weather

sailwx.info

Track history (hours):
 
Tides and Currents Weather Stations Pressure Air Temp Water Temp Dewpoint Dewpoint Depression Visibility Wind Speed Wind Dir Waves Ship Positions

Prudentia

Last reported at 2017-Aug-16 19:30 UTC. Time now 2017-Aug-16 19:47 UTC.
Position N 52°35' E 005°32'.

Length 70 m; draft 1.8 m.

Type: Ship. MMSI: 244660779.

Date/timePositionNaut miles runAvg speedWind from/ knotsBaromVisibWave heightAir tempDewpointWater temp
2017-Aug-16 19:30N 52°35' E 005°32'4 8.2
2017-Aug-16 19:00N 52°33' E 005°27'2 4.7
2017-Aug-16 18:30N 52°31' E 005°25'4 7.9
2017-Aug-16 18:00N 52°29' E 005°19'4 8.0
2017-Aug-16 17:30N 52°27' E 005°14'4 7.9
2017-Aug-16 17:00N 52°25' E 005°08'4 8.0
2017-Aug-16 16:30N 52°23' E 005°03'3 6.5
2017-Aug-16 16:01N 52°23' E 004°58'2 4.3
2017-Aug-16 15:30N 52°23' E 004°54'4 7.1
2017-Aug-16 15:01N 52°25' E 004°50'2 4.2
2017-Aug-16 14:31N 52°25' E 004°46'0 0.0
2017-Aug-16 14:01N 52°25' E 004°46'0 0.0
2017-Aug-16 13:31N 52°25' E 004°46'0 0.0
2017-Aug-16 13:01N 52°25' E 004°46'0 0.0
2017-Aug-16 12:31N 52°25' E 004°46'0 0.0
2017-Aug-16 12:00N 52°25' E 004°46'0 0.0
2017-Aug-16 11:30N 52°25' E 004°46'0 0.0
2017-Aug-16 11:01N 52°25' E 004°46'0 0.0
2017-Aug-16 10:31N 52°25' E 004°46'0 0.0
2017-Aug-16 10:01N 52°25' E 004°46'0 0.0
2017-Aug-16 09:30N 52°25' E 004°46'1 2.2
2017-Aug-16 09:00N 52°25' E 004°48'4 8.4
2017-Aug-16 08:31N 52°24' E 004°54'3 5.9
2017-Aug-16 08:00N 52°22' E 004°58'4 7.5
2017-Aug-16 07:30N 52°19' E 005°01'4 7.9
2017-Aug-16 07:00N 52°15' E 005°01'4 7.6
2017-Aug-16 06:30N 52°11' E 004°60'3 6.9
2017-Aug-16 06:00N 52°08' E 005°02'3 6.9
2017-Aug-16 05:30N 52°05' E 005°05'4 7.4
2017-Aug-16 05:00N 52°01' E 005°07'0 0.4
2017-Aug-16 04:30N 52°01' E 005°07'0 0.0
2017-Aug-16 04:00N 52°01' E 005°07'0 0.0
2017-Aug-16 03:30N 52°01' E 005°07'0 0.0
2017-Aug-16 03:00N 52°01' E 005°07'0 0.0
2017-Aug-16 02:30N 52°01' E 005°07'0 0.0
2017-Aug-16 02:00N 52°01' E 005°07'0 0.0
2017-Aug-16 01:30N 52°01' E 005°07'0 0.0
2017-Aug-16 01:00N 52°01' E 005°07'0 0.0
2017-Aug-16 00:30N 52°01' E 005°07'0 0.0
2017-Aug-16 00:00N 52°01' E 005°07'0 0.0
2017-Aug-15 23:30N 52°01' E 005°07'0 0.0
2017-Aug-15 23:00N 52°01' E 005°07'0 0.0
2017-Aug-15 22:30N 52°01' E 005°07'0 0.0
2017-Aug-15 22:00N 52°01' E 005°07'0 0.0
2017-Aug-15 21:30N 52°01' E 005°07'0 0.0
2017-Aug-15 21:00N 52°01' E 005°07'0 0.0
2017-Aug-15 20:30N 52°01' E 005°07'0 0.0
2017-Aug-15 20:00N 52°01' E 005°07'0 0.0
2017-Aug-15 19:30N 52°01' E 005°07'0 0.0
2017-Aug-15 19:00N 52°01' E 005°07'0 0.0
2017-Aug-15 18:30N 52°01' E 005°07'0 0.7
2017-Aug-15 18:00N 52°01' E 005°07'8 4.7
2017-Aug-15 16:15N 51°54' E 004°60'2 5.7
2017-Aug-15 15:58N 51°52' E 004°60'2 4.8
2017-Aug-15 15:29N 51°50' E 004°58'2 2.9
2017-Aug-15 14:47N 51°49' E 005°01'2 1.3
2017-Aug-15 13:34N 51°48' E 005°03'0 0.0
2017-Aug-15 13:29N 51°48' E 005°03'0 0.0
2017-Aug-15 12:54N 51°48' E 005°03'0 0.0
2017-Aug-15 12:22N 51°48' E 005°03'0 0.0
2017-Aug-15 12:00N 51°48' E 005°03'0 0.0
2017-Aug-15 11:24N 51°48' E 005°03'0 0.0
2017-Aug-15 10:49N 51°48' E 005°03'0 0.0
2017-Aug-15 09:28N 51°48' E 005°03'0 0.0
2017-Aug-15 08:49N 51°48' E 005°03'0 0.2
2017-Aug-15 08:30N 51°48' E 005°03'0 0.0
2017-Aug-15 08:00N 51°48' E 005°03'0 0.0
2017-Aug-15 07:29N 51°48' E 005°03'2 2.9
2017-Aug-15 06:52N 51°49' E 005°01'1 3.0
2017-Aug-15 06:30N 51°49' E 005°02'4 8.0
2017-Aug-15 06:00N 51°49' E 005°09'4 8.5
2017-Aug-15 05:30N 51°49' E 005°16'4 7.9
2017-Aug-15 05:00N 51°49' E 005°22'4 8.8
2017-Aug-15 04:30N 51°52' E 005°26'4 8.6
2017-Aug-15 04:00N 51°54' E 005°32'1 1.1
2017-Aug-15 03:30N 51°54' E 005°33'0 0.0
2017-Aug-15 03:00N 51°54' E 005°33'0 0.0
2017-Aug-15 02:30N 51°54' E 005°33'0 0.0
2017-Aug-15 02:00N 51°54' E 005°33'0 0.0
2017-Aug-15 01:30N 51°54' E 005°33'0 0.0
2017-Aug-15 01:00N 51°54' E 005°33'0 0.0
2017-Aug-15 00:30N 51°54' E 005°33'0 0.0
2017-Aug-15 00:00N 51°54' E 005°33'0 0.0
2017-Aug-14 23:30N 51°54' E 005°33'0 0.0
2017-Aug-14 23:00N 51°54' E 005°33'0 0.0
2017-Aug-14 22:30N 51°54' E 005°33'0 0.0
2017-Aug-14 22:00N 51°54' E 005°33'0 0.0
2017-Aug-14 21:30N 51°54' E 005°33'0 0.0
2017-Aug-14 21:00N 51°54' E 005°33'0 0.0
2017-Aug-14 20:30N 51°54' E 005°33'3 5.2
2017-Aug-14 20:00N 51°54' E 005°37'5 9.5
2017-Aug-14 19:30N 51°53' E 005°45'5 9.3
2017-Aug-14 19:00N 51°51' E 005°51'4 7.6
2017-Aug-14 18:30N 51°51' E 005°57'4 7.7
2017-Aug-14 18:00N 51°52' E 006°04'5 9.9
2017-Aug-14 17:30N 51°50' E 006°11'5 9.9
2017-Aug-14 17:00N 51°48' E 006°18'4 8.8
2017-Aug-14 16:30N 51°45' E 006°24'4 7.9
2017-Aug-14 16:00N 51°42' E 006°28'4 9.0
2017-Aug-14 15:30N 51°40' E 006°33'4 7.6
2017-Aug-14 15:00N 51°36' E 006°36'4 7.3
2017-Aug-14 14:29N 51°34' E 006°41'4 9.0
2017-Aug-14 13:59N 51°30' E 006°43'3 6.3
2017-Aug-14 13:30N 51°27' E 006°43'10 7.5
2017-Aug-14 12:07N 51°17' E 006°42'110.0
2017-Aug-14 12:00N 51°16' E 006°43'2 4.1
2017-Aug-14 11:30N 51°14' E 006°43'1 2.1
2017-Aug-14 11:00N 51°13' E 006°42'0 0.0
2017-Aug-14 10:30N 51°13' E 006°42'0 0.0
2017-Aug-14 10:00N 51°13' E 006°42'0 0.0
2017-Aug-14 09:30N 51°13' E 006°42'0 0.0
2017-Aug-14 09:00N 51°13' E 006°42'0 0.0
2017-Aug-14 08:30N 51°13' E 006°42'0 0.0
2017-Aug-14 08:00N 51°13' E 006°42'0 0.0
2017-Aug-14 07:29N 51°13' E 006°42'0 0.0
2017-Aug-14 07:00N 51°13' E 006°42'0 0.0
2017-Aug-14 06:30N 51°13' E 006°42'0 0.0
2017-Aug-14 06:00N 51°13' E 006°42'0 0.0
2017-Aug-14 05:30N 51°13' E 006°42'0 0.0
2017-Aug-14 05:00N 51°13' E 006°42'0 0.0
2017-Aug-14 04:30N 51°13' E 006°42'0 0.0
2017-Aug-14 04:00N 51°13' E 006°42'0 0.6
2017-Aug-14 03:30N 51°13' E 006°42'0 0.0
2017-Aug-14 03:00N 51°13' E 006°42'0 0.0
2017-Aug-14 02:31N 51°13' E 006°42'0 0.0
2017-Aug-14 02:00N 51°13' E 006°42'0 0.0
2017-Aug-14 01:30N 51°13' E 006°42'0 0.0
2017-Aug-14 01:00N 51°13' E 006°42'0 0.0
2017-Aug-14 00:31N 51°13' E 006°42'0 0.0
2017-Aug-14 00:00N 51°13' E 006°42'0 0.0
2017-Aug-13 23:30N 51°13' E 006°42'0 0.0
2017-Aug-13 23:00N 51°13' E 006°42'0 0.0
2017-Aug-13 22:30N 51°13' E 006°42'0 0.0
2017-Aug-13 22:00N 51°13' E 006°42'0 0.0
2017-Aug-13 21:30N 51°13' E 006°42'0 0.0
2017-Aug-13 21:00N 51°13' E 006°42'0 0.0
2017-Aug-13 20:31N 51°13' E 006°42'0 0.0
2017-Aug-13 20:00N 51°13' E 006°42'0 0.0
2017-Aug-13 19:30N 51°13' E 006°42'0 0.0
2017-Aug-13 19:01N 51°13' E 006°42'0 0.0
2017-Aug-13 18:30N 51°13' E 006°42'0 0.0
2017-Aug-13 18:00N 51°13' E 006°42'0 0.0
2017-Aug-13 17:31N 51°13' E 006°42'0 0.0
2017-Aug-13 17:01N 51°13' E 006°42'0 0.0
2017-Aug-13 16:30N 51°13' E 006°42'0 0.0
2017-Aug-13 16:01N 51°13' E 006°42'0 0.0
2017-Aug-13 15:31N 51°13' E 006°42'0 0.0
2017-Aug-13 15:00N 51°13' E 006°42'0 0.0
2017-Aug-13 14:31N 51°13' E 006°42'0 0.0
2017-Aug-13 14:01N 51°13' E 006°42'0 0.0
2017-Aug-13 13:30N 51°13' E 006°42'0 0.0
2017-Aug-13 13:00N 51°13' E 006°42'0 0.0
2017-Aug-13 12:31N 51°13' E 006°42'0 0.0
2017-Aug-13 12:00N 51°13' E 006°42'0 0.0
2017-Aug-13 11:30N 51°13' E 006°42'0 0.0
2017-Aug-13 11:00N 51°13' E 006°42'0 0.0
2017-Aug-13 10:30N 51°13' E 006°42'0 0.0
2017-Aug-13 10:00N 51°13' E 006°42'0 0.0
2017-Aug-13 09:31N 51°13' E 006°42'0 0.0
2017-Aug-13 09:00N 51°13' E 006°42'0 0.0
2017-Aug-13 08:30N 51°13' E 006°42'0 0.0
2017-Aug-13 08:01N 51°13' E 006°42'0 0.0
2017-Aug-13 07:31N 51°13' E 006°42'0 0.0
2017-Aug-13 07:00N 51°13' E 006°42'0 0.0
2017-Aug-13 06:31N 51°13' E 006°42'0 0.0
2017-Aug-13 06:01N 51°13' E 006°42'0 0.0
2017-Aug-13 05:30N 51°13' E 006°42'0 0.0
2017-Aug-13 05:01N 51°13' E 006°42'0 0.0
2017-Aug-13 04:31N 51°13' E 006°42'0 0.0
2017-Aug-13 04:00N 51°13' E 006°42'0 0.0
2017-Aug-13 03:31N 51°13' E 006°42'0 0.0
2017-Aug-13 03:01N 51°13' E 006°42'0 0.0
2017-Aug-13 02:31N 51°13' E 006°42'0 0.0
2017-Aug-13 02:00N 51°13' E 006°42'0 0.0
2017-Aug-13 01:31N 51°13' E 006°42'0 0.0
2017-Aug-13 01:00N 51°13' E 006°42'0 0.0
2017-Aug-13 00:30N 51°13' E 006°42'0 0.0
2017-Aug-13 00:00N 51°13' E 006°42'0 0.0
2017-Aug-12 23:31N 51°13' E 006°42'0 0.0
2017-Aug-12 23:00N 51°13' E 006°42'0 0.0
2017-Aug-12 22:30N 51°13' E 006°42'0 0.0
2017-Aug-12 22:01N 51°13' E 006°42'0 0.0
2017-Aug-12 21:30N 51°13' E 006°42'0 0.0
2017-Aug-12 21:01N 51°13' E 006°42'0 0.0
2017-Aug-12 20:31N 51°13' E 006°42'0 0.0
2017-Aug-12 20:00N 51°13' E 006°42'0 0.0
2017-Aug-12 19:31N 51°13' E 006°42'0 0.0
2017-Aug-12 19:01N 51°13' E 006°42'0 0.0
2017-Aug-12 18:30N 51°13' E 006°42'0 0.0
2017-Aug-12 18:01N 51°13' E 006°42'0 0.0
2017-Aug-12 17:30N 51°13' E 006°42'0 0.0
2017-Aug-12 17:00N 51°13' E 006°42'0 0.0
2017-Aug-12 16:31N 51°13' E 006°42'0 0.0
2017-Aug-12 16:01N 51°13' E 006°42'0 0.0
2017-Aug-12 15:30N 51°13' E 006°42'0 0.0
2017-Aug-12 15:00N 51°13' E 006°42'0 0.0
2017-Aug-12 14:31N 51°13' E 006°42'0 0.0
2017-Aug-12 14:00N 51°13' E 006°42'0 0.0
2017-Aug-12 13:31N 51°13' E 006°42'0 0.0
2017-Aug-12 13:00N 51°13' E 006°42'0 0.0
2017-Aug-12 12:30N 51°13' E 006°42'0 0.0
2017-Aug-12 12:01N 51°13' E 006°42'0 0.0
2017-Aug-12 11:30N 51°13' E 006°42'0 0.0
2017-Aug-12 11:00N 51°13' E 006°42'0 0.0
2017-Aug-12 10:31N 51°13' E 006°42'0 0.0
2017-Aug-12 10:00N 51°13' E 006°42'0 0.0
2017-Aug-12 09:31N 51°13' E 006°42'0 0.0
2017-Aug-12 09:01N 51°13' E 006°42'0 0.0
2017-Aug-12 08:30N 51°13' E 006°42'0 0.0
2017-Aug-12 08:00N 51°13' E 006°42'0 0.0
2017-Aug-12 07:30N 51°13' E 006°42'0 0.0
2017-Aug-12 07:00N 51°13' E 006°42'0 0.0
2017-Aug-12 06:30N 51°13' E 006°42'0 0.0
2017-Aug-12 06:00N 51°13' E 006°42'0 0.0
2017-Aug-12 05:30N 51°13' E 006°42'0 0.0
2017-Aug-12 05:00N 51°13' E 006°42'0 0.0
2017-Aug-12 04:30N 51°13' E 006°42'0 0.0
2017-Aug-12 04:00N 51°13' E 006°42'0 0.0
2017-Aug-12 03:31N 51°13' E 006°42'0 0.0
2017-Aug-12 03:01N 51°13' E 006°42'0 0.0
2017-Aug-12 02:30N 51°13' E 006°42'0 0.0
2017-Aug-12 02:00N 51°13' E 006°42'0 0.0
2017-Aug-12 01:30N 51°13' E 006°42'0 0.0
2017-Aug-12 01:00N 51°13' E 006°42'0 0.0
2017-Aug-12 00:31N 51°13' E 006°42'0 0.0
2017-Aug-12 00:01N 51°13' E 006°42'0 0.0
2017-Aug-11 23:30N 51°13' E 006°42'0 0.0
2017-Aug-11 23:01N 51°13' E 006°42'0 0.0
2017-Aug-11 22:31N 51°13' E 006°42'0 0.0
2017-Aug-11 22:00N 51°13' E 006°42'0 0.0
2017-Aug-11 21:31N 51°13' E 006°42'0 0.0
2017-Aug-11 21:01N 51°13' E 006°42'0 0.0
2017-Aug-11 20:30N 51°13' E 006°42'0 0.0
2017-Aug-11 20:01N 51°13' E 006°42'0 0.0
2017-Aug-11 19:30N 51°13' E 006°42'0 0.0
2017-Aug-11 19:01N 51°13' E 006°42'0 0.0
2017-Aug-11 18:31N 51°13' E 006°42'0 0.0
2017-Aug-11 18:00N 51°13' E 006°42'0 0.0
2017-Aug-11 17:31N 51°13' E 006°42'0 0.0
2017-Aug-11 17:01N 51°13' E 006°42'0 0.0
2017-Aug-11 16:30N 51°13' E 006°42'0 0.0
2017-Aug-11 16:01N 51°13' E 006°42'0 0.0
2017-Aug-11 15:30N 51°13' E 006°42'0 0.0
2017-Aug-11 15:00N 51°13' E 006°42'0 0.0
2017-Aug-11 14:31N 51°13' E 006°42'0 0.0
2017-Aug-11 13:30N 51°13' E 006°42'0 0.0
2017-Aug-11 13:00N 51°13' E 006°42'0 0.0
2017-Aug-11 12:31N 51°13' E 006°42'0 0.0
2017-Aug-11 12:00N 51°13' E 006°42'0 0.0
2017-Aug-11 11:31N 51°13' E 006°42'0 0.0
2017-Aug-11 11:01N 51°13' E 006°42'0 0.0
2017-Aug-11 10:30N 51°13' E 006°42'0 0.0
2017-Aug-11 10:01N 51°13' E 006°42'0 0.0
2017-Aug-11 09:31N 51°13' E 006°42'0 0.0
2017-Aug-11 09:00N 51°13' E 006°42'0 0.0
2017-Aug-11 08:31N 51°13' E 006°42'0 0.0
2017-Aug-11 08:01N 51°13' E 006°42'0 0.0
2017-Aug-11 07:31N 51°13' E 006°42'0 0.0
2017-Aug-11 07:01N 51°13' E 006°42'0 0.0
2017-Aug-11 06:30N 51°13' E 006°42'0 0.0
2017-Aug-11 06:01N 51°13' E 006°42'0 0.0
2017-Aug-11 05:30N 51°13' E 006°42'0 0.0
2017-Aug-11 05:00N 51°13' E 006°42'0 0.0
2017-Aug-11 04:31N 51°13' E 006°42'0 0.0
2017-Aug-11 04:01N 51°13' E 006°42'0 0.0
2017-Aug-11 03:30N 51°13' E 006°42'0 0.0
2017-Aug-11 03:01N 51°13' E 006°42'0 0.0
2017-Aug-11 02:30N 51°13' E 006°42'0 0.0
2017-Aug-11 02:00N 51°13' E 006°42'0 0.0
2017-Aug-11 01:30N 51°13' E 006°42'0 0.0
2017-Aug-11 01:01N 51°13' E 006°42'0 0.0
2017-Aug-11 00:30N 51°13' E 006°42'0 0.0
2017-Aug-11 00:00N 51°13' E 006°42'0 0.0
2017-Aug-10 23:30N 51°13' E 006°42'0 0.0
2017-Aug-10 23:00N 51°13' E 006°42'0 0.0
2017-Aug-10 22:31N 51°13' E 006°42'0 0.0
2017-Aug-10 22:00N 51°13' E 006°42'0 0.0
2017-Aug-10 21:30N 51°13' E 006°42'0 0.0
2017-Aug-10 21:00N 51°13' E 006°42'0 0.0
2017-Aug-10 20:31N 51°13' E 006°42'0 0.0
2017-Aug-10 20:00N 51°13' E 006°42'0 0.0
2017-Aug-10 19:30N 51°13' E 006°42'0 0.0
2017-Aug-10 19:01N 51°13' E 006°42'0 0.0
2017-Aug-10 18:30N 51°13' E 006°42'0 0.0
2017-Aug-10 18:01N 51°13' E 006°42'0 0.0
2017-Aug-10 17:31N 51°13' E 006°42'0 0.0
2017-Aug-10 17:00N 51°13' E 006°42'0 0.0
2017-Aug-10 16:30N 51°13' E 006°42'0 0.0
2017-Aug-10 16:00N 51°13' E 006°42'0 0.0
2017-Aug-10 15:30N 51°13' E 006°42'8 0.3
2017-Aug-09 12:59N 51°21' E 006°40'4 3.9
2017-Aug-09 12:00N 51°23' E 006°44'2 4.4
2017-Aug-09 11:31N 51°25' E 006°44'2 4.3
2017-Aug-09 11:01N 51°28' E 006°43'2 4.3
2017-Aug-09 10:31N 51°29' E 006°41'2 4.1
2017-Aug-09 09:58N 51°31' E 006°43'2 4.8
2017-Aug-09 09:28N 51°32' E 006°40'2 4.0
2017-Aug-09 08:54N 51°35' E 006°40'2 4.2
2017-Aug-09 08:29N 51°34' E 006°37'2 4.0
2017-Aug-09 08:00N 51°36' E 006°36'2 4.6
2017-Aug-09 07:29N 51°38' E 006°36'2 3.8
2017-Aug-09 07:00N 51°40' E 006°34'2 5.0
2017-Aug-09 06:30N 51°40' E 006°30'2 4.8
2017-Aug-09 06:00N 51°42' E 006°28'2 4.9
2017-Aug-09 05:29N 51°43' E 006°25'2 4.6
2017-Aug-09 05:01N 51°45' E 006°25'3 5.4
2017-Aug-09 04:30N 51°45' E 006°20'3 5.6
2017-Aug-09 04:00N 51°48' E 006°19'3 5.7
2017-Aug-09 03:31N 51°50' E 006°15'0 0.4
2017-Aug-09 03:00N 51°50' E 006°15'0 0.0
2017-Aug-09 02:31N 51°50' E 006°15'0 0.0
2017-Aug-09 02:00N 51°50' E 006°15'0 0.0
2017-Aug-09 01:31N 51°50' E 006°15'0 0.0
2017-Aug-09 01:01N 51°50' E 006°15'0 0.0
2017-Aug-09 00:30N 51°50' E 006°15'0 0.0
2017-Aug-09 00:00N 51°50' E 006°15'0 0.0
2017-Aug-08 23:30N 51°50' E 006°15'0 0.0
2017-Aug-08 23:00N 51°50' E 006°15'0 0.0
2017-Aug-08 22:31N 51°50' E 006°15'0 0.0
2017-Aug-08 22:00N 51°50' E 006°15'0 0.0
2017-Aug-08 21:30N 51°50' E 006°15'0 0.0
2017-Aug-08 21:00N 51°50' E 006°15'0 0.0
2017-Aug-08 20:31N 51°50' E 006°15'0 0.0
2017-Aug-08 20:00N 51°50' E 006°15'0 0.0
2017-Aug-08 19:31N 51°50' E 006°15'0 0.0
2017-Aug-08 18:59N 51°50' E 006°15'0 0.0
2017-Aug-08 18:30N 51°50' E 006°15'0 0.0
2017-Aug-08 18:00N 51°50' E 006°15'0 0.0
2017-Aug-08 17:30N 51°50' E 006°15'0 0.0
2017-Aug-08 17:01N 51°50' E 006°15'0 0.0
2017-Aug-08 16:31N 51°50' E 006°15'2 4.1
2017-Aug-08 16:00N 51°50' E 006°12'3 5.0
2017-Aug-08 15:30N 51°51' E 006°08'3 5.5
2017-Aug-08 15:01N 51°52' E 006°04'3 5.4
2017-Aug-08 14:30N 51°53' E 005°60'2 4.1
2017-Aug-08 14:01N 51°52' E 005°57'2 4.6
2017-Aug-08 13:30N 51°52' E 005°53'1 2.5
2017-Aug-08 13:00N 51°51' E 005°51'0 0.0
2017-Aug-08 12:31N 51°51' E 005°51'2 4.0
2017-Aug-08 12:00N 51°52' E 005°49'3 5.6
2017-Aug-08 11:31N 51°53' E 005°44'3 5.6
2017-Aug-08 11:00N 51°54' E 005°40'3 5.7
2017-Aug-08 10:30N 51°54' E 005°35'18 5.4
2017-Aug-08 07:13N 52°01' E 005°09'2 7.8
2017-Aug-08 07:01N 52°02' E 005°07'4 7.7
2017-Aug-08 06:30N 52°06' E 005°05'4 7.4
2017-Aug-08 05:57N 52°09' E 005°01'3 7.3
2017-Aug-08 05:31N 52°12' E 005°00'4 7.9
2017-Aug-08 05:01N 52°16' E 005°01'4 7.8
2017-Aug-08 04:30N 52°20' E 005°01'4 7.3
2017-Aug-08 04:01N 52°23' E 004°57'0 0.2
2017-Aug-08 03:31N 52°23' E 004°57'0 0.0
2017-Aug-08 03:01N 52°23' E 004°57'0 0.0
2017-Aug-08 02:31N 52°23' E 004°57'0 0.0
2017-Aug-08 02:00N 52°23' E 004°57'0 0.0
2017-Aug-08 01:31N 52°23' E 004°57'0 0.0
2017-Aug-08 01:00N 52°23' E 004°57'0 0.0
2017-Aug-08 00:30N 52°23' E 004°57'0 0.0
2017-Aug-08 00:01N 52°23' E 004°57'0 0.0
2017-Aug-07 23:31N 52°23' E 004°57'0 0.0
2017-Aug-07 23:01N 52°23' E 004°57'0 0.0
2017-Aug-07 22:31N 52°23' E 004°57'0 0.0
2017-Aug-07 22:01N 52°23' E 004°57'0 0.0
2017-Aug-07 21:31N 52°23' E 004°57'0 0.0
2017-Aug-07 21:01N 52°23' E 004°57'0 0.0
2017-Aug-07 20:31N 52°23' E 004°57'0 0.0
2017-Aug-07 20:01N 52°23' E 004°57'0 0.0
2017-Aug-07 19:30N 52°23' E 004°57'0 0.0
2017-Aug-07 19:01N 52°23' E 004°57'1 2.5
2017-Aug-07 18:30N 52°23' E 004°55'2 4.1
2017-Aug-07 18:00N 52°24' E 004°52'0 0.0
2017-Aug-07 17:30N 52°24' E 004°52'0 0.0
2017-Aug-07 17:00N 52°24' E 004°52'0 0.0
2017-Aug-07 16:31N 52°24' E 004°52'0 0.0
2017-Aug-07 16:00N 52°24' E 004°52'0 0.0
2017-Aug-07 15:31N 52°24' E 004°52'0 0.0
2017-Aug-07 15:00N 52°24' E 004°52'0 0.0
2017-Aug-07 14:30N 52°24' E 004°52'0 0.0
2017-Aug-07 14:00N 52°24' E 004°52'0 0.0
2017-Aug-07 13:31N 52°24' E 004°52'0 0.6
2017-Aug-07 13:00N 52°24' E 004°52'0 0.0
2017-Aug-07 12:30N 52°24' E 004°52'0 0.0
2017-Aug-07 12:00N 52°24' E 004°52'0 0.0
2017-Aug-07 11:30N 52°24' E 004°52'0 0.6
2017-Aug-07 11:01N 52°24' E 004°52'3 6.3
2017-Aug-07 10:30N 52°23' E 004°57'4 8.0
2017-Aug-07 10:00N 52°20' E 005°01'4 8.5
2017-Aug-07 09:30N 52°15' E 005°01'5 8.5
2017-Aug-07 08:57N 52°11' E 004°60'4 7.9
2017-Aug-07 08:30N 52°08' E 005°03'4 8.0
2017-Aug-07 08:00N 52°04' E 005°05'4 8.2
2017-Aug-07 07:28N 52°01' E 005°10'6 8.4
2017-Aug-07 06:47N 51°58' E 005°18'1 2.5
2017-Aug-07 06:30N 51°58' E 005°19'5 7.8
2017-Aug-07 05:50N 51°55' E 005°26'1 3.7
2017-Aug-07 05:30N 51°54' E 005°27'4 7.8
2017-Aug-07 04:59N 51°54' E 005°34'510.7
2017-Aug-07 04:30N 51°54' E 005°42'510.1
2017-Aug-07 04:00N 51°52' E 005°50'1 2.2
2017-Aug-07 03:30N 51°51' E 005°49'0 0.1
2017-Aug-07 03:00N 51°51' E 005°49'0 0.0
2017-Aug-07 02:30N 51°51' E 005°49'0 0.0
2017-Aug-07 02:00N 51°51' E 005°49'0 0.0
2017-Aug-07 01:30N 51°51' E 005°49'0 0.0
2017-Aug-07 01:01N 51°51' E 005°49'0 0.0
2017-Aug-07 00:31N 51°51' E 005°49'0 0.0
2017-Aug-07 00:00N 51°51' E 005°49'0 0.0
2017-Aug-06 23:30N 51°51' E 005°49'0 0.0
2017-Aug-06 23:00N 51°51' E 005°49'0 0.0
2017-Aug-06 22:31N 51°51' E 005°49'0 0.0
2017-Aug-06 22:00N 51°51' E 005°49'0 0.0
2017-Aug-06 21:30N 51°51' E 005°49'0 0.0
2017-Aug-06 21:00N 51°51' E 005°49'0 0.0
2017-Aug-06 20:30N 51°51' E 005°49'0 0.0
2017-Aug-06 20:00N 51°51' E 005°49'0 0.0
2017-Aug-06 19:30N 51°51' E 005°49'  
Track history (hours):
 
Tides and Currents Weather Stations Pressure Air Temp Water Temp Dewpoint Dewpoint Depression Visibility Wind Speed Wind Dir Waves Ship Positions

Prudentia

Last reported at 2017-Aug-16 19:30 UTC. Time now 2017-Aug-16 19:48 UTC.
Position N 52°35' E 005°32'.

Length 70 m; draft 1.8 m.

Type: Ship. MMSI: 244660779.

Date/timePositionNaut miles runAvg speedWind from/ knotsBaromVisibWave heightAir tempDewpointWater temp
2017-Aug-16 19:30N 52°35' E 005°32'4 8.2
2017-Aug-16 19:00N 52°33' E 005°27'2 4.7
2017-Aug-16 18:30N 52°31' E 005°25'4 7.9
2017-Aug-16 18:00N 52°29' E 005°19'4 8.0
2017-Aug-16 17:30N 52°27' E 005°14'4 7.9
2017-Aug-16 17:00N 52°25' E 005°08'4 8.0
2017-Aug-16 16:30N 52°23' E 005°03'3 6.5
2017-Aug-16 16:01N 52°23' E 004°58'2 4.3
2017-Aug-16 15:30N 52°23' E 004°54'4 7.1
2017-Aug-16 15:01N 52°25' E 004°50'2 4.2
2017-Aug-16 14:31N 52°25' E 004°46'0 0.0
2017-Aug-16 14:01N 52°25' E 004°46'0 0.0
2017-Aug-16 13:31N 52°25' E 004°46'0 0.0
2017-Aug-16 13:01N 52°25' E 004°46'0 0.0
2017-Aug-16 12:31N 52°25' E 004°46'0 0.0
2017-Aug-16 12:00N 52°25' E 004°46'0 0.0
2017-Aug-16 11:30N 52°25' E 004°46'0 0.0
2017-Aug-16 11:01N 52°25' E 004°46'0 0.0
2017-Aug-16 10:31N 52°25' E 004°46'0 0.0
2017-Aug-16 10:01N 52°25' E 004°46'0 0.0
2017-Aug-16 09:30N 52°25' E 004°46'1 2.2
2017-Aug-16 09:00N 52°25' E 004°48'4 8.4
2017-Aug-16 08:31N 52°24' E 004°54'3 5.9
2017-Aug-16 08:00N 52°22' E 004°58'4 7.5
2017-Aug-16 07:30N 52°19' E 005°01'4 7.9
2017-Aug-16 07:00N 52°15' E 005°01'4 7.6
2017-Aug-16 06:30N 52°11' E 004°60'3 6.9
2017-Aug-16 06:00N 52°08' E 005°02'3 6.9
2017-Aug-16 05:30N 52°05' E 005°05'4 7.4
2017-Aug-16 05:00N 52°01' E 005°07'0 0.4
2017-Aug-16 04:30N 52°01' E 005°07'0 0.0
2017-Aug-16 04:00N 52°01' E 005°07'0 0.0
2017-Aug-16 03:30N 52°01' E 005°07'0 0.0
2017-Aug-16 03:00N 52°01' E 005°07'0 0.0
2017-Aug-16 02:30N 52°01' E 005°07'0 0.0
2017-Aug-16 02:00N 52°01' E 005°07'0 0.0
2017-Aug-16 01:30N 52°01' E 005°07'0 0.0
2017-Aug-16 01:00N 52°01' E 005°07'0 0.0
2017-Aug-16 00:30N 52°01' E 005°07'0 0.0
2017-Aug-16 00:00N 52°01' E 005°07'0 0.0
2017-Aug-15 23:30N 52°01' E 005°07'0 0.0
2017-Aug-15 23:00N 52°01' E 005°07'0 0.0
2017-Aug-15 22:30N 52°01' E 005°07'0 0.0
2017-Aug-15 22:00N 52°01' E 005°07'0 0.0
2017-Aug-15 21:30N 52°01' E 005°07'0 0.0
2017-Aug-15 21:00N 52°01' E 005°07'0 0.0
2017-Aug-15 20:30N 52°01' E 005°07'0 0.0
2017-Aug-15 20:00N 52°01' E 005°07'0 0.0
2017-Aug-15 19:30N 52°01' E 005°07'0 0.0
2017-Aug-15 19:00N 52°01' E 005°07'0 0.0
2017-Aug-15 18:30N 52°01' E 005°07'0 0.7
2017-Aug-15 18:00N 52°01' E 005°07'8 4.7
2017-Aug-15 16:15N 51°54' E 004°60'2 5.7
2017-Aug-15 15:58N 51°52' E 004°60'2 4.8
2017-Aug-15 15:29N 51°50' E 004°58'2 2.9
2017-Aug-15 14:47N 51°49' E 005°01'2 1.3
2017-Aug-15 13:34N 51°48' E 005°03'0 0.0
2017-Aug-15 13:29N 51°48' E 005°03'0 0.0
2017-Aug-15 12:54N 51°48' E 005°03'0 0.0
2017-Aug-15 12:22N 51°48' E 005°03'0 0.0
2017-Aug-15 12:00N 51°48' E 005°03'0 0.0
2017-Aug-15 11:24N 51°48' E 005°03'0 0.0
2017-Aug-15 10:49N 51°48' E 005°03'0 0.0
2017-Aug-15 09:28N 51°48' E 005°03'0 0.0
2017-Aug-15 08:49N 51°48' E 005°03'0 0.2
2017-Aug-15 08:30N 51°48' E 005°03'0 0.0
2017-Aug-15 08:00N 51°48' E 005°03'0 0.0
2017-Aug-15 07:29N 51°48' E 005°03'2 2.9
2017-Aug-15 06:52N 51°49' E 005°01'1 3.0
2017-Aug-15 06:30N 51°49' E 005°02'4 8.0
2017-Aug-15 06:00N 51°49' E 005°09'4 8.5
2017-Aug-15 05:30N 51°49' E 005°16'4 7.9
2017-Aug-15 05:00N 51°49' E 005°22'4 8.8
2017-Aug-15 04:30N 51°52' E 005°26'4 8.6
2017-Aug-15 04:00N 51°54' E 005°32'1 1.1
2017-Aug-15 03:30N 51°54' E 005°33'0 0.0
2017-Aug-15 03:00N 51°54' E 005°33'0 0.0
2017-Aug-15 02:30N 51°54' E 005°33'0 0.0
2017-Aug-15 02:00N 51°54' E 005°33'0 0.0
2017-Aug-15 01:30N 51°54' E 005°33'0 0.0
2017-Aug-15 01:00N 51°54' E 005°33'0 0.0
2017-Aug-15 00:30N 51°54' E 005°33'0 0.0
2017-Aug-15 00:00N 51°54' E 005°33'0 0.0
2017-Aug-14 23:30N 51°54' E 005°33'0 0.0
2017-Aug-14 23:00N 51°54' E 005°33'0 0.0
2017-Aug-14 22:30N 51°54' E 005°33'0 0.0
2017-Aug-14 22:00N 51°54' E 005°33'0 0.0
2017-Aug-14 21:30N 51°54' E 005°33'0 0.0
2017-Aug-14 21:00N 51°54' E 005°33'0 0.0
2017-Aug-14 20:30N 51°54' E 005°33'3 5.2
2017-Aug-14 20:00N 51°54' E 005°37'5 9.5
2017-Aug-14 19:30N 51°53' E 005°45'5 9.3
2017-Aug-14 19:00N 51°51' E 005°51'4 7.6
2017-Aug-14 18:30N 51°51' E 005°57'4 7.7
2017-Aug-14 18:00N 51°52' E 006°04'5 9.9
2017-Aug-14 17:30N 51°50' E 006°11'5 9.9
2017-Aug-14 17:00N 51°48' E 006°18'4 8.8
2017-Aug-14 16:30N 51°45' E 006°24'4 7.9
2017-Aug-14 16:00N 51°42' E 006°28'4 9.0
2017-Aug-14 15:30N 51°40' E 006°33'4 7.6
2017-Aug-14 15:00N 51°36' E 006°36'4 7.3
2017-Aug-14 14:29N 51°34' E 006°41'4 9.0
2017-Aug-14 13:59N 51°30' E 006°43'3 6.3
2017-Aug-14 13:30N 51°27' E 006°43'10 7.5
2017-Aug-14 12:07N 51°17' E 006°42'110.0
2017-Aug-14 12:00N 51°16' E 006°43'2 4.1
2017-Aug-14 11:30N 51°14' E 006°43'1 2.1
2017-Aug-14 11:00N 51°13' E 006°42'0 0.0
2017-Aug-14 10:30N 51°13' E 006°42'0 0.0
2017-Aug-14 10:00N 51°13' E 006°42'0 0.0
2017-Aug-14 09:30N 51°13' E 006°42'0 0.0
2017-Aug-14 09:00N 51°13' E 006°42'0 0.0
2017-Aug-14 08:30N 51°13' E 006°42'0 0.0
2017-Aug-14 08:00N 51°13' E 006°42'0 0.0
2017-Aug-14 07:29N 51°13' E 006°42'0 0.0
2017-Aug-14 07:00N 51°13' E 006°42'0 0.0
2017-Aug-14 06:30N 51°13' E 006°42'0 0.0
2017-Aug-14 06:00N 51°13' E 006°42'0 0.0
2017-Aug-14 05:30N 51°13' E 006°42'0 0.0
2017-Aug-14 05:00N 51°13' E 006°42'0 0.0
2017-Aug-14 04:30N 51°13' E 006°42'0 0.0
2017-Aug-14 04:00N 51°13' E 006°42'0 0.6
2017-Aug-14 03:30N 51°13' E 006°42'0 0.0
2017-Aug-14 03:00N 51°13' E 006°42'0 0.0
2017-Aug-14 02:31N 51°13' E 006°42'0 0.0
2017-Aug-14 02:00N 51°13' E 006°42'0 0.0
2017-Aug-14 01:30N 51°13' E 006°42'0 0.0
2017-Aug-14 01:00N 51°13' E 006°42'0 0.0
2017-Aug-14 00:31N 51°13' E 006°42'0 0.0
2017-Aug-14 00:00N 51°13' E 006°42'0 0.0
2017-Aug-13 23:30N 51°13' E 006°42'0 0.0
2017-Aug-13 23:00N 51°13' E 006°42'0 0.0
2017-Aug-13 22:30N 51°13' E 006°42'0 0.0
2017-Aug-13 22:00N 51°13' E 006°42'0 0.0
2017-Aug-13 21:30N 51°13' E 006°42'0 0.0
2017-Aug-13 21:00N 51°13' E 006°42'0 0.0
2017-Aug-13 20:31N 51°13' E 006°42'0 0.0
2017-Aug-13 20:00N 51°13' E 006°42'0 0.0
2017-Aug-13 19:30N 51°13' E 006°42'0 0.0
2017-Aug-13 19:01N 51°13' E 006°42'0 0.0
2017-Aug-13 18:30N 51°13' E 006°42'0 0.0
2017-Aug-13 18:00N 51°13' E 006°42'0 0.0
2017-Aug-13 17:31N 51°13' E 006°42'0 0.0
2017-Aug-13 17:01N 51°13' E 006°42'0 0.0
2017-Aug-13 16:30N 51°13' E 006°42'0 0.0
2017-Aug-13 16:01N 51°13' E 006°42'0 0.0
2017-Aug-13 15:31N 51°13' E 006°42'0 0.0
2017-Aug-13 15:00N 51°13' E 006°42'0 0.0
2017-Aug-13 14:31N 51°13' E 006°42'0 0.0
2017-Aug-13 14:01N 51°13' E 006°42'0 0.0
2017-Aug-13 13:30N 51°13' E 006°42'0 0.0
2017-Aug-13 13:00N 51°13' E 006°42'0 0.0
2017-Aug-13 12:31N 51°13' E 006°42'0 0.0
2017-Aug-13 12:00N 51°13' E 006°42'0 0.0
2017-Aug-13 11:30N 51°13' E 006°42'0 0.0
2017-Aug-13 11:00N 51°13' E 006°42'0 0.0
2017-Aug-13 10:30N 51°13' E 006°42'0 0.0
2017-Aug-13 10:00N 51°13' E 006°42'0 0.0
2017-Aug-13 09:31N 51°13' E 006°42'0 0.0
2017-Aug-13 09:00N 51°13' E 006°42'0 0.0
2017-Aug-13 08:30N 51°13' E 006°42'0 0.0
2017-Aug-13 08:01N 51°13' E 006°42'0 0.0
2017-Aug-13 07:31N 51°13' E 006°42'0 0.0
2017-Aug-13 07:00N 51°13' E 006°42'0 0.0
2017-Aug-13 06:31N 51°13' E 006°42'0 0.0
2017-Aug-13 06:01N 51°13' E 006°42'0 0.0
2017-Aug-13 05:30N 51°13' E 006°42'0 0.0
2017-Aug-13 05:01N 51°13' E 006°42'0 0.0
2017-Aug-13 04:31N 51°13' E 006°42'0 0.0
2017-Aug-13 04:00N 51°13' E 006°42'0 0.0
2017-Aug-13 03:31N 51°13' E 006°42'0 0.0
2017-Aug-13 03:01N 51°13' E 006°42'0 0.0
2017-Aug-13 02:31N 51°13' E 006°42'0 0.0
2017-Aug-13 02:00N 51°13' E 006°42'0 0.0
2017-Aug-13 01:31N 51°13' E 006°42'0 0.0
2017-Aug-13 01:00N 51°13' E 006°42'0 0.0
2017-Aug-13 00:30N 51°13' E 006°42'0 0.0
2017-Aug-13 00:00N 51°13' E 006°42'0 0.0
2017-Aug-12 23:31N 51°13' E 006°42'0 0.0
2017-Aug-12 23:00N 51°13' E 006°42'0 0.0
2017-Aug-12 22:30N 51°13' E 006°42'0 0.0
2017-Aug-12 22:01N 51°13' E 006°42'0 0.0
2017-Aug-12 21:30N 51°13' E 006°42'0 0.0
2017-Aug-12 21:01N 51°13' E 006°42'0 0.0
2017-Aug-12 20:31N 51°13' E 006°42'0 0.0
2017-Aug-12 20:00N 51°13' E 006°42'0 0.0
2017-Aug-12 19:31N 51°13' E 006°42'0 0.0
2017-Aug-12 19:01N 51°13' E 006°42'0 0.0
2017-Aug-12 18:30N 51°13' E 006°42'0 0.0
2017-Aug-12 18:01N 51°13' E 006°42'0 0.0
2017-Aug-12 17:30N 51°13' E 006°42'0 0.0
2017-Aug-12 17:00N 51°13' E 006°42'0 0.0
2017-Aug-12 16:31N 51°13' E 006°42'0 0.0
2017-Aug-12 16:01N 51°13' E 006°42'0 0.0
2017-Aug-12 15:30N 51°13' E 006°42'0 0.0
2017-Aug-12 15:00N 51°13' E 006°42'0 0.0
2017-Aug-12 14:31N 51°13' E 006°42'0 0.0
2017-Aug-12 14:00N 51°13' E 006°42'0 0.0
2017-Aug-12 13:31N 51°13' E 006°42'0 0.0
2017-Aug-12 13:00N 51°13' E 006°42'0 0.0
2017-Aug-12 12:30N 51°13' E 006°42'0 0.0
2017-Aug-12 12:01N 51°13' E 006°42'0 0.0
2017-Aug-12 11:30N 51°13' E 006°42'0 0.0
2017-Aug-12 11:00N 51°13' E 006°42'0 0.0
2017-Aug-12 10:31N 51°13' E 006°42'0 0.0
2017-Aug-12 10:00N 51°13' E 006°42'0 0.0
2017-Aug-12 09:31N 51°13' E 006°42'0 0.0
2017-Aug-12 09:01N 51°13' E 006°42'0 0.0
2017-Aug-12 08:30N 51°13' E 006°42'0 0.0
2017-Aug-12 08:00N 51°13' E 006°42'0 0.0
2017-Aug-12 07:30N 51°13' E 006°42'0 0.0
2017-Aug-12 07:00N 51°13' E 006°42'0 0.0
2017-Aug-12 06:30N 51°13' E 006°42'0 0.0
2017-Aug-12 06:00N 51°13' E 006°42'0 0.0
2017-Aug-12 05:30N 51°13' E 006°42'0 0.0
2017-Aug-12 05:00N 51°13' E 006°42'0 0.0
2017-Aug-12 04:30N 51°13' E 006°42'0 0.0
2017-Aug-12 04:00N 51°13' E 006°42'0 0.0
2017-Aug-12 03:31N 51°13' E 006°42'0 0.0
2017-Aug-12 03:01N 51°13' E 006°42'0 0.0
2017-Aug-12 02:30N 51°13' E 006°42'0 0.0
2017-Aug-12 02:00N 51°13' E 006°42'0 0.0
2017-Aug-12 01:30N 51°13' E 006°42'0 0.0
2017-Aug-12 01:00N 51°13' E 006°42'0 0.0
2017-Aug-12 00:31N 51°13' E 006°42'0 0.0
2017-Aug-12 00:01N 51°13' E 006°42'0 0.0
2017-Aug-11 23:30N 51°13' E 006°42'0 0.0
2017-Aug-11 23:01N 51°13' E 006°42'0 0.0
2017-Aug-11 22:31N 51°13' E 006°42'0 0.0
2017-Aug-11 22:00N 51°13' E 006°42'0 0.0
2017-Aug-11 21:31N 51°13' E 006°42'0 0.0
2017-Aug-11 21:01N 51°13' E 006°42'0 0.0
2017-Aug-11 20:30N 51°13' E 006°42'0 0.0
2017-Aug-11 20:01N 51°13' E 006°42'0 0.0
2017-Aug-11 19:30N 51°13' E 006°42'0 0.0
2017-Aug-11 19:01N 51°13' E 006°42'0 0.0
2017-Aug-11 18:31N 51°13' E 006°42'0 0.0
2017-Aug-11 18:00N 51°13' E 006°42'0 0.0
2017-Aug-11 17:31N 51°13' E 006°42'0 0.0
2017-Aug-11 17:01N 51°13' E 006°42'0 0.0
2017-Aug-11 16:30N 51°13' E 006°42'0 0.0
2017-Aug-11 16:01N 51°13' E 006°42'0 0.0
2017-Aug-11 15:30N 51°13' E 006°42'0 0.0
2017-Aug-11 15:00N 51°13' E 006°42'0 0.0
2017-Aug-11 14:31N 51°13' E 006°42'0 0.0
2017-Aug-11 13:30N 51°13' E 006°42'0 0.0
2017-Aug-11 13:00N 51°13' E 006°42'0 0.0
2017-Aug-11 12:31N 51°13' E 006°42'0 0.0
2017-Aug-11 12:00N 51°13' E 006°42'0 0.0
2017-Aug-11 11:31N 51°13' E 006°42'0 0.0
2017-Aug-11 11:01N 51°13' E 006°42'0 0.0
2017-Aug-11 10:30N 51°13' E 006°42'0 0.0
2017-Aug-11 10:01N 51°13' E 006°42'0 0.0
2017-Aug-11 09:31N 51°13' E 006°42'0 0.0
2017-Aug-11 09:00N 51°13' E 006°42'0 0.0
2017-Aug-11 08:31N 51°13' E 006°42'0 0.0
2017-Aug-11 08:01N 51°13' E 006°42'0 0.0
2017-Aug-11 07:31N 51°13' E 006°42'0 0.0
2017-Aug-11 07:01N 51°13' E 006°42'0 0.0
2017-Aug-11 06:30N 51°13' E 006°42'0 0.0
2017-Aug-11 06:01N 51°13' E 006°42'0 0.0
2017-Aug-11 05:30N 51°13' E 006°42'0 0.0
2017-Aug-11 05:00N 51°13' E 006°42'0 0.0
2017-Aug-11 04:31N 51°13' E 006°42'0 0.0
2017-Aug-11 04:01N 51°13' E 006°42'0 0.0
2017-Aug-11 03:30N 51°13' E 006°42'0 0.0
2017-Aug-11 03:01N 51°13' E 006°42'0 0.0
2017-Aug-11 02:30N 51°13' E 006°42'0 0.0
2017-Aug-11 02:00N 51°13' E 006°42'0 0.0
2017-Aug-11 01:30N 51°13' E 006°42'0 0.0
2017-Aug-11 01:01N 51°13' E 006°42'0 0.0
2017-Aug-11 00:30N 51°13' E 006°42'0 0.0
2017-Aug-11 00:00N 51°13' E 006°42'0 0.0
2017-Aug-10 23:30N 51°13' E 006°42'0 0.0
2017-Aug-10 23:00N 51°13' E 006°42'0 0.0
2017-Aug-10 22:31N 51°13' E 006°42'0 0.0
2017-Aug-10 22:00N 51°13' E 006°42'0 0.0
2017-Aug-10 21:30N 51°13' E 006°42'0 0.0
2017-Aug-10 21:00N 51°13' E 006°42'0 0.0
2017-Aug-10 20:31N 51°13' E 006°42'0 0.0
2017-Aug-10 20:00N 51°13' E 006°42'0 0.0
2017-Aug-10 19:30N 51°13' E 006°42'0 0.0
2017-Aug-10 19:01N 51°13' E 006°42'0 0.0
2017-Aug-10 18:30N 51°13' E 006°42'0 0.0
2017-Aug-10 18:01N 51°13' E 006°42'0 0.0
2017-Aug-10 17:31N 51°13' E 006°42'0 0.0
2017-Aug-10 17:00N 51°13' E 006°42'0 0.0
2017-Aug-10 16:30N 51°13' E 006°42'0 0.0
2017-Aug-10 16:00N 51°13' E 006°42'0 0.0
2017-Aug-10 15:30N 51°13' E 006°42'8 0.3
2017-Aug-09 12:59N 51°21' E 006°40'4 3.9
2017-Aug-09 12:00N 51°23' E 006°44'2 4.4
2017-Aug-09 11:31N 51°25' E 006°44'2 4.3
2017-Aug-09 11:01N 51°28' E 006°43'2 4.3
2017-Aug-09 10:31N 51°29' E 006°41'2 4.1
2017-Aug-09 09:58N 51°31' E 006°43'2 4.8
2017-Aug-09 09:28N 51°32' E 006°40'2 4.0
2017-Aug-09 08:54N 51°35' E 006°40'2 4.2
2017-Aug-09 08:29N 51°34' E 006°37'2 4.0
2017-Aug-09 08:00N 51°36' E 006°36'2 4.6
2017-Aug-09 07:29N 51°38' E 006°36'2 3.8
2017-Aug-09 07:00N 51°40' E 006°34'2 5.0
2017-Aug-09 06:30N 51°40' E 006°30'2 4.8
2017-Aug-09 06:00N 51°42' E 006°28'2 4.9
2017-Aug-09 05:29N 51°43' E 006°25'2 4.6
2017-Aug-09 05:01N 51°45' E 006°25'3 5.4
2017-Aug-09 04:30N 51°45' E 006°20'3 5.6
2017-Aug-09 04:00N 51°48' E 006°19'3 5.7
2017-Aug-09 03:31N 51°50' E 006°15'0 0.4
2017-Aug-09 03:00N 51°50' E 006°15'0 0.0
2017-Aug-09 02:31N 51°50' E 006°15'0 0.0
2017-Aug-09 02:00N 51°50' E 006°15'0 0.0
2017-Aug-09 01:31N 51°50' E 006°15'0 0.0
2017-Aug-09 01:01N 51°50' E 006°15'0 0.0
2017-Aug-09 00:30N 51°50' E 006°15'0 0.0
2017-Aug-09 00:00N 51°50' E 006°15'0 0.0
2017-Aug-08 23:30N 51°50' E 006°15'0 0.0
2017-Aug-08 23:00N 51°50' E 006°15'0 0.0
2017-Aug-08 22:31N 51°50' E 006°15'0 0.0
2017-Aug-08 22:00N 51°50' E 006°15'0 0.0
2017-Aug-08 21:30N 51°50' E 006°15'0 0.0
2017-Aug-08 21:00N 51°50' E 006°15'0 0.0
2017-Aug-08 20:31N 51°50' E 006°15'0 0.0
2017-Aug-08 20:00N 51°50' E 006°15'0 0.0
2017-Aug-08 19:31N 51°50' E 006°15'0 0.0
2017-Aug-08 18:59N 51°50' E 006°15'0 0.0
2017-Aug-08 18:30N 51°50' E 006°15'0 0.0
2017-Aug-08 18:00N 51°50' E 006°15'0 0.0
2017-Aug-08 17:30N 51°50' E 006°15'0 0.0
2017-Aug-08 17:01N 51°50' E 006°15'0 0.0
2017-Aug-08 16:31N 51°50' E 006°15'2 4.1
2017-Aug-08 16:00N 51°50' E 006°12'3 5.0
2017-Aug-08 15:30N 51°51' E 006°08'3 5.5
2017-Aug-08 15:01N 51°52' E 006°04'3 5.4
2017-Aug-08 14:30N 51°53' E 005°60'2 4.1
2017-Aug-08 14:01N 51°52' E 005°57'2 4.6
2017-Aug-08 13:30N 51°52' E 005°53'1 2.5
2017-Aug-08 13:00N 51°51' E 005°51'0 0.0
2017-Aug-08 12:31N 51°51' E 005°51'2 4.0
2017-Aug-08 12:00N 51°52' E 005°49'3 5.6
2017-Aug-08 11:31N 51°53' E 005°44'3 5.6
2017-Aug-08 11:00N 51°54' E 005°40'3 5.7
2017-Aug-08 10:30N 51°54' E 005°35'18 5.4
2017-Aug-08 07:13N 52°01' E 005°09'2 7.8
2017-Aug-08 07:01N 52°02' E 005°07'4 7.7
2017-Aug-08 06:30N 52°06' E 005°05'4 7.4
2017-Aug-08 05:57N 52°09' E 005°01'3 7.3
2017-Aug-08 05:31N 52°12' E 005°00'4 7.9
2017-Aug-08 05:01N 52°16' E 005°01'4 7.8
2017-Aug-08 04:30N 52°20' E 005°01'4 7.3
2017-Aug-08 04:01N 52°23' E 004°57'0 0.2
2017-Aug-08 03:31N 52°23' E 004°57'0 0.0
2017-Aug-08 03:01N 52°23' E 004°57'0 0.0
2017-Aug-08 02:31N 52°23' E 004°57'0 0.0
2017-Aug-08 02:00N 52°23' E 004°57'0 0.0
2017-Aug-08 01:31N 52°23' E 004°57'0 0.0
2017-Aug-08 01:00N 52°23' E 004°57'0 0.0
2017-Aug-08 00:30N 52°23' E 004°57'0 0.0
2017-Aug-08 00:01N 52°23' E 004°57'0 0.0
2017-Aug-07 23:31N 52°23' E 004°57'0 0.0
2017-Aug-07 23:01N 52°23' E 004°57'0 0.0
2017-Aug-07 22:31N 52°23' E 004°57'0 0.0
2017-Aug-07 22:01N 52°23' E 004°57'0 0.0
2017-Aug-07 21:31N 52°23' E 004°57'0 0.0
2017-Aug-07 21:01N 52°23' E 004°57'0 0.0
2017-Aug-07 20:31N 52°23' E 004°57'0 0.0
2017-Aug-07 20:01N 52°23' E 004°57'0 0.0
2017-Aug-07 19:30N 52°23' E 004°57'0 0.0
2017-Aug-07 19:01N 52°23' E 004°57'1 2.5
2017-Aug-07 18:30N 52°23' E 004°55'2 4.1
2017-Aug-07 18:00N 52°24' E 004°52'0 0.0
2017-Aug-07 17:30N 52°24' E 004°52'0 0.0
2017-Aug-07 17:00N 52°24' E 004°52'0 0.0
2017-Aug-07 16:31N 52°24' E 004°52'0 0.0
2017-Aug-07 16:00N 52°24' E 004°52'0 0.0
2017-Aug-07 15:31N 52°24' E 004°52'0 0.0
2017-Aug-07 15:00N 52°24' E 004°52'0 0.0
2017-Aug-07 14:30N 52°24' E 004°52'0 0.0
2017-Aug-07 14:00N 52°24' E 004°52'0 0.0
2017-Aug-07 13:31N 52°24' E 004°52'0 0.6
2017-Aug-07 13:00N 52°24' E 004°52'0 0.0
2017-Aug-07 12:30N 52°24' E 004°52'0 0.0
2017-Aug-07 12:00N 52°24' E 004°52'0 0.0
2017-Aug-07 11:30N 52°24' E 004°52'0 0.6
2017-Aug-07 11:01N 52°24' E 004°52'3 6.3
2017-Aug-07 10:30N 52°23' E 004°57'4 8.0
2017-Aug-07 10:00N 52°20' E 005°01'4 8.5
2017-Aug-07 09:30N 52°15' E 005°01'5 8.5
2017-Aug-07 08:57N 52°11' E 004°60'4 7.9
2017-Aug-07 08:30N 52°08' E 005°03'4 8.0
2017-Aug-07 08:00N 52°04' E 005°05'4 8.2
2017-Aug-07 07:28N 52°01' E 005°10'6 8.4
2017-Aug-07 06:47N 51°58' E 005°18'1 2.5
2017-Aug-07 06:30N 51°58' E 005°19'5 7.8
2017-Aug-07 05:50N 51°55' E 005°26'1 3.7
2017-Aug-07 05:30N 51°54' E 005°27'4 7.8
2017-Aug-07 04:59N 51°54' E 005°34'510.7
2017-Aug-07 04:30N 51°54' E 005°42'510.1
2017-Aug-07 04:00N 51°52' E 005°50'1 2.2
2017-Aug-07 03:30N 51°51' E 005°49'0 0.1
2017-Aug-07 03:00N 51°51' E 005°49'0 0.0
2017-Aug-07 02:30N 51°51' E 005°49'0 0.0
2017-Aug-07 02:00N 51°51' E 005°49'0 0.0
2017-Aug-07 01:30N 51°51' E 005°49'0 0.0
2017-Aug-07 01:01N 51°51' E 005°49'0 0.0
2017-Aug-07 00:31N 51°51' E 005°49'0 0.0
2017-Aug-07 00:00N 51°51' E 005°49'0 0.0
2017-Aug-06 23:30N 51°51' E 005°49'0 0.0
2017-Aug-06 23:00N 51°51' E 005°49'0 0.0
2017-Aug-06 22:31N 51°51' E 005°49'0 0.0
2017-Aug-06 22:00N 51°51' E 005°49'0 0.0
2017-Aug-06 21:30N 51°51' E 005°49'0 0.0
2017-Aug-06 21:00N 51°51' E 005°49'0 0.0
2017-Aug-06 20:30N 51°51' E 005°49'0 0.0
2017-Aug-06 20:00N 51°51' E 005°49'0 0.0
2017-Aug-06 19:30N 51°51' E 005°49'  

Dump ship's entire track history